Portada
METAR-TAF:

METAR-TAF

Aeroports :

Kiritimati, Kiribati

latitud: 01-59N, longitud: 157-29W, altitud: 3 m

Observació

L'informe es va fer fa 43 minuts, a les 14:00 UTC
Vent 6 kt del Est/Sud-Est
Temperatura 27°C
Humitat 84%
Pressió 1009 hPa
Visibilitat 10 km o més
Núvols disperses a una alçada de 2000 ft

METAR: PLCH 231400Z 11006KT 9999 SCT020 27/24 Q1009

Hora: 04:43 (14:43 UTC)

Pronòstic

L'informe es va fer fa 3 hores i 20 minuts, a les 11:23 UTC
Pronòstic vàlid del 23 a les 12 UTC al 24 a les 12 UTC
Vent 8 kt del Est/Sud-Est
Visibilitat 10 km o més
Núvols disperses a una alçada de 2000 ft
Cel ennuvolat a una alçada de 4000 ft
Probabilitat 30% :
Temporalment
l' 23 a les 12 UTC al 23 a les 24 UTC
Visibilitat: 5000 m
Cel ennuvolat a una alçada de 1500 ft
xàfecs de pluja

TAF: PLCH 231123Z 2312/2412 11008KT 9999 SCT020 BKN040 PROB30 TEMPO 2312/2324 5000 SHRA BKN015

Observacions i pronòstics meteorològics de més de 4000 aeroports (METAR i TAF).

Les estacions disponibles són els punts grocs i vermells al mapa.

Posi el ratolí al punt desitjat per veure el nom de l'estació.

Feu clic per veure les observacions i els pronòstics meteorològics.

Per canviar el mapa: feu clic els botons verds amb una creu de color negre per apropar; al botó verd amb un guió per allunyar la imatge; o en les fletxes verdes per a mapes adjacents.


METAR-TAF: